Oney Z — J8B4719 — position and weather

sailwx.info

Track history (hours):
 
Tides and Currents Weather Stations Pressure Air Temp Water Temp Dewpoint Dewpoint Depression Visibility Wind Speed Wind Dir Waves Ship Positions

Oney Z

Last reported at 2016-Jul-26 16:33 UTC. Time now 2016-Jul-26 17:56 UTC.
Position N 37°59' E 015°35'.

Length 79 m; draft 2.8 m.

Type: Cargo ship. MMSI: 376099000.

Date/timePositionNaut miles runAvg speedWind from/ knotsBaromVisibWave heightAir tempDewpointWater temp
2016-Jul-26 16:33N 37°59' E 015°35'7 7.1
2016-Jul-26 15:33N 38°06' E 015°35'8 7.8
2016-Jul-26 14:33N 38°14' E 015°36'6 5.9
2016-Jul-26 13:32N 38°20' E 015°37'8 6.6
2016-Jul-26 12:21N 38°19' E 015°28'12 0.6
2016-Jul-25 16:33N 38°13' E 015°15'0 0.0
2016-Jul-25 15:33N 38°13' E 015°15'0 0.0
2016-Jul-25 14:33N 38°13' E 015°15'0 0.0
2016-Jul-25 13:33N 38°13' E 015°15'0 0.0
2016-Jul-25 12:33N 38°13' E 015°15'0 0.0
2016-Jul-25 11:33N 38°13' E 015°15'0 0.0
2016-Jul-25 10:27N 38°13' E 015°15'0 0.0
2016-Jul-25 09:33N 38°13' E 015°15'0 0.0
2016-Jul-25 08:33N 38°13' E 015°15'0 0.0
2016-Jul-25 07:33N 38°13' E 015°15'0 0.0
2016-Jul-25 06:33N 38°13' E 015°15'0 0.1
2016-Jul-25 05:23N 38°13' E 015°15'3 3.1
2016-Jul-25 04:33N 38°13' E 015°18'0 0.1
2016-Jul-25 03:33N 38°13' E 015°18'0 0.0
2016-Jul-25 02:33N 38°13' E 015°18'0 0.0
2016-Jul-25 01:33N 38°13' E 015°18'0 0.0
2016-Jul-25 00:33N 38°13' E 015°18'0 0.0
2016-Jul-24 23:33N 38°13' E 015°18'0 0.0
2016-Jul-24 22:33N 38°13' E 015°18'0 0.0
2016-Jul-24 21:33N 38°13' E 015°18'0 0.0
2016-Jul-24 20:33N 38°13' E 015°18'0 0.1
2016-Jul-24 19:33N 38°13' E 015°18'0 0.0
2016-Jul-24 18:27N 38°13' E 015°18'0 0.0
2016-Jul-24 17:33N 38°13' E 015°18'0 0.0
2016-Jul-24 16:33N 38°13' E 015°18'0 0.0
2016-Jul-24 15:33N 38°13' E 015°18'0 0.0
2016-Jul-24 14:33N 38°13' E 015°18'0 0.0
2016-Jul-24 13:33N 38°13' E 015°18'0 0.0
2016-Jul-24 12:33N 38°13' E 015°18'0 0.0
2016-Jul-24 11:33N 38°13' E 015°18'0 0.0
2016-Jul-24 10:33N 38°13' E 015°18'0 0.0
2016-Jul-24 09:33N 38°13' E 015°18'0 0.0
2016-Jul-24 08:33N 38°13' E 015°18'0 0.0
2016-Jul-24 07:33N 38°13' E 015°18'0 0.0
2016-Jul-24 06:33N 38°13' E 015°18'0 0.0
2016-Jul-24 05:33N 38°13' E 015°18'0 0.0
2016-Jul-24 04:33N 38°13' E 015°18'0 0.3
2016-Jul-24 03:33N 38°13' E 015°18'6 6.2
2016-Jul-24 02:33N 38°18' E 015°23'9 7.9
2016-Jul-24 01:28N 38°21' E 015°33'7 8.2
2016-Jul-24 00:33N 38°19' E 015°42'6 5.9
2016-Jul-23 23:33N 38°14' E 015°38'7 6.8
2016-Jul-23 22:33N 38°08' E 015°36'8 8.0
2016-Jul-23 21:33N 37°60' E 015°35'8 6.2
2016-Jul-23 20:17N 37°53' E 015°42'  
2016-Jul-18 15:22N 33°21' E 033°20'81 5.3
2016-Jul-18 00:12N 32°55' E 034°51'4 6.2
2016-Jul-17 23:33N 32°53' E 034°56'6 6.4
2016-Jul-17 22:33N 32°49' E 035°01'0 0.4
2016-Jul-17 21:33N 32°49' E 035°02'0 0.0
2016-Jul-17 20:32N 32°49' E 035°02'0 0.0
2016-Jul-17 19:33N 32°49' E 035°02'0 0.0
2016-Jul-17 18:29N 32°49' E 035°02'0 0.0
2016-Jul-17 17:32N 32°49' E 035°02'0 0.0
2016-Jul-17 16:32N 32°49' E 035°02'0 0.0
2016-Jul-17 15:32N 32°49' E 035°02'0 0.0
2016-Jul-17 14:32N 32°49' E 035°02'0 0.0
2016-Jul-17 13:32N 32°49' E 035°02'0 0.0
2016-Jul-17 12:32N 32°49' E 035°02'0 0.0
2016-Jul-17 11:32N 32°49' E 035°02'0 0.0
2016-Jul-17 10:29N 32°49' E 035°02'0 0.0
2016-Jul-17 09:32N 32°49' E 035°02'0 0.0
2016-Jul-17 08:32N 32°49' E 035°02'0 0.0
2016-Jul-17 07:29N 32°49' E 035°02'0 0.0
2016-Jul-17 06:32N 32°49' E 035°02'0 0.0
2016-Jul-17 04:32N 32°49' E 035°02'0 0.0
2016-Jul-17 03:32N 32°49' E 035°02'0 0.0
2016-Jul-17 02:32N 32°49' E 035°02'0 0.0
2016-Jul-17 01:32N 32°49' E 035°02'0 0.0
2016-Jul-17 00:32N 32°49' E 035°02'0 0.0
2016-Jul-16 23:32N 32°49' E 035°02'0 0.0
2016-Jul-16 22:32N 32°49' E 035°02'0 0.0
2016-Jul-16 21:32N 32°49' E 035°02'0 0.0
2016-Jul-16 20:32N 32°49' E 035°02'0 0.0
2016-Jul-16 19:32N 32°49' E 035°02'0 0.0
2016-Jul-16 18:32N 32°49' E 035°02'0 0.0
2016-Jul-16 17:32N 32°49' E 035°02'  
Track history (hours):
 
Tides and Currents Weather Stations Pressure Air Temp Water Temp Dewpoint Dewpoint Depression Visibility Wind Speed Wind Dir Waves Ship Positions

Oney Z

Last reported at 2016-Jul-26 16:33 UTC. Time now 2016-Jul-26 17:56 UTC.
Position N 37°59' E 015°35'.

Length 79 m; draft 2.8 m.

Type: Cargo ship. MMSI: 376099000.

Date/timePositionNaut miles runAvg speedWind from/ knotsBaromVisibWave heightAir tempDewpointWater temp
2016-Jul-26 16:33N 37°59' E 015°35'7 7.1
2016-Jul-26 15:33N 38°06' E 015°35'8 7.8
2016-Jul-26 14:33N 38°14' E 015°36'6 5.9
2016-Jul-26 13:32N 38°20' E 015°37'8 6.6
2016-Jul-26 12:21N 38°19' E 015°28'12 0.6
2016-Jul-25 16:33N 38°13' E 015°15'0 0.0
2016-Jul-25 15:33N 38°13' E 015°15'0 0.0
2016-Jul-25 14:33N 38°13' E 015°15'0 0.0
2016-Jul-25 13:33N 38°13' E 015°15'0 0.0
2016-Jul-25 12:33N 38°13' E 015°15'0 0.0
2016-Jul-25 11:33N 38°13' E 015°15'0 0.0
2016-Jul-25 10:27N 38°13' E 015°15'0 0.0
2016-Jul-25 09:33N 38°13' E 015°15'0 0.0
2016-Jul-25 08:33N 38°13' E 015°15'0 0.0
2016-Jul-25 07:33N 38°13' E 015°15'0 0.0
2016-Jul-25 06:33N 38°13' E 015°15'0 0.1
2016-Jul-25 05:23N 38°13' E 015°15'3 3.1
2016-Jul-25 04:33N 38°13' E 015°18'0 0.1
2016-Jul-25 03:33N 38°13' E 015°18'0 0.0
2016-Jul-25 02:33N 38°13' E 015°18'0 0.0
2016-Jul-25 01:33N 38°13' E 015°18'0 0.0
2016-Jul-25 00:33N 38°13' E 015°18'0 0.0
2016-Jul-24 23:33N 38°13' E 015°18'0 0.0
2016-Jul-24 22:33N 38°13' E 015°18'0 0.0
2016-Jul-24 21:33N 38°13' E 015°18'0 0.0
2016-Jul-24 20:33N 38°13' E 015°18'0 0.1
2016-Jul-24 19:33N 38°13' E 015°18'0 0.0
2016-Jul-24 18:27N 38°13' E 015°18'0 0.0
2016-Jul-24 17:33N 38°13' E 015°18'0 0.0
2016-Jul-24 16:33N 38°13' E 015°18'0 0.0
2016-Jul-24 15:33N 38°13' E 015°18'0 0.0
2016-Jul-24 14:33N 38°13' E 015°18'0 0.0
2016-Jul-24 13:33N 38°13' E 015°18'0 0.0
2016-Jul-24 12:33N 38°13' E 015°18'0 0.0
2016-Jul-24 11:33N 38°13' E 015°18'0 0.0
2016-Jul-24 10:33N 38°13' E 015°18'0 0.0
2016-Jul-24 09:33N 38°13' E 015°18'0 0.0
2016-Jul-24 08:33N 38°13' E 015°18'0 0.0
2016-Jul-24 07:33N 38°13' E 015°18'0 0.0
2016-Jul-24 06:33N 38°13' E 015°18'0 0.0
2016-Jul-24 05:33N 38°13' E 015°18'0 0.0
2016-Jul-24 04:33N 38°13' E 015°18'0 0.3
2016-Jul-24 03:33N 38°13' E 015°18'6 6.2
2016-Jul-24 02:33N 38°18' E 015°23'9 7.9
2016-Jul-24 01:28N 38°21' E 015°33'7 8.2
2016-Jul-24 00:33N 38°19' E 015°42'6 5.9
2016-Jul-23 23:33N 38°14' E 015°38'7 6.8
2016-Jul-23 22:33N 38°08' E 015°36'8 8.0
2016-Jul-23 21:33N 37°60' E 015°35'8 6.2
2016-Jul-23 20:17N 37°53' E 015°42'  
2016-Jul-18 15:22N 33°21' E 033°20'81 5.3
2016-Jul-18 00:12N 32°55' E 034°51'4 6.2
2016-Jul-17 23:33N 32°53' E 034°56'6 6.4
2016-Jul-17 22:33N 32°49' E 035°01'0 0.4
2016-Jul-17 21:33N 32°49' E 035°02'0 0.0
2016-Jul-17 20:32N 32°49' E 035°02'0 0.0
2016-Jul-17 19:33N 32°49' E 035°02'0 0.0
2016-Jul-17 18:29N 32°49' E 035°02'0 0.0
2016-Jul-17 17:32N 32°49' E 035°02'0 0.0
2016-Jul-17 16:32N 32°49' E 035°02'0 0.0
2016-Jul-17 15:32N 32°49' E 035°02'0 0.0
2016-Jul-17 14:32N 32°49' E 035°02'0 0.0
2016-Jul-17 13:32N 32°49' E 035°02'0 0.0
2016-Jul-17 12:32N 32°49' E 035°02'0 0.0
2016-Jul-17 11:32N 32°49' E 035°02'0 0.0
2016-Jul-17 10:29N 32°49' E 035°02'0 0.0
2016-Jul-17 09:32N 32°49' E 035°02'0 0.0
2016-Jul-17 08:32N 32°49' E 035°02'0 0.0
2016-Jul-17 07:29N 32°49' E 035°02'0 0.0
2016-Jul-17 06:32N 32°49' E 035°02'0 0.0
2016-Jul-17 04:32N 32°49' E 035°02'0 0.0
2016-Jul-17 03:32N 32°49' E 035°02'0 0.0
2016-Jul-17 02:32N 32°49' E 035°02'0 0.0
2016-Jul-17 01:32N 32°49' E 035°02'0 0.0
2016-Jul-17 00:32N 32°49' E 035°02'0 0.0
2016-Jul-16 23:32N 32°49' E 035°02'0 0.0
2016-Jul-16 22:32N 32°49' E 035°02'0 0.0
2016-Jul-16 21:32N 32°49' E 035°02'0 0.0
2016-Jul-16 20:32N 32°49' E 035°02'0 0.0
2016-Jul-16 19:32N 32°49' E 035°02'0 0.0
2016-Jul-16 18:32N 32°49' E 035°02'0 0.0
2016-Jul-16 17:32N 32°49' E 035°02'  

Dump ship's entire track history